BE3035 / G-JECZ 7700 Squawk Report (17th of February, 2019)

Aircraft DH8D Reg No. G-JECZ Age 11 years old
Model DHC-8 Turboprop engines 2 First flight 13-11-07
Registered 20-11-07 Rollout 10-07 Delivered 21-11-07
Construction No. 4179 Line No. N/A Series Q-402
ADSHEX 40134E Airline name FlyBE Owner N/A
Airfield based Exeter~Devon~G First tracked 2017-07-18 12:14:00

Flight history for G-JECZ

Route Flight No Date Playback
Glasgow (GLA) - Birmingham (BHX) BE783 2019-03-21 09:46:00
Manchester (MAN) - Jersey (JER) BE453 2019-03-21 07:54:00
Dyce (ABZ) - Birmingham (BHX) BE321 2019-03-20 08:08:00
Heathrow (LHR) - Dyce (ABZ) BE2122 2019-03-19 11:25:00
Dyce (ABZ) - Heathrow (LHR) BE2121 2019-03-19 10:20:00
Heathrow (LHR) - Dyce (ABZ) BE2128 2019-03-19 00:01:00
Dyce (ABZ) - Heathrow (LHR) BE2127 2019-03-18 21:58:00
Birmingham (BHX) - Dyce (ABZ) BE326 2019-03-18 17:09:00
Dyce (ABZ) - Birmingham (BHX) BE325 2019-03-18 14:57:00
Heathrow (LHR) - Dyce (ABZ) BE2122 2019-03-18 10:56:00
Dyce (ABZ) - Heathrow (LHR) BE2121 2019-03-18 10:00:00
Heathrow (LHR) - Dyce (ABZ) BE2128 2019-03-17 22:00:00
Dyce (ABZ) - Heathrow (LHR) BE2127 2019-03-17 19:24:00
???? N/A 2019-03-17 16:17:00
Dyce (ABZ) - Heathrow (LHR) BE2123 2019-03-17 13:45:00
Heathrow (LHR) - Dyce (ABZ) BE2122 2019-03-17 11:06:00
Dyce (ABZ) - Heathrow (LHR) BE2121 2019-03-17 10:12:00
Birmingham (BHX) - Guernsey (GCI) BE1263 2019-03-16 14:38:00
Dyce (ABZ) - Belfast City (BHD) BE153 2019-03-16 13:24:00
Heathrow (LHR) - Dyce (ABZ) BE2122 2019-03-16 11:28:00
Time Lat Lon Altitude Heading Speed Vertical Rate
2019-02-17 15:23:46 GMT 50.971302 -1.345901 375 202 117 -576
2019-02-17 15:23:31 GMT 50.980705 -1.340866 425 202 122 -576
2019-02-17 15:23:25 GMT 50.980705 -1.340866 550 202 122 -576
2019-02-17 15:23:10 GMT 50.985920 -1.337585 575 200 150 -640
2019-02-17 15:23:05 GMT 51.018288 -1.317007 700 208 110 -720
2019-02-17 15:22:02 GMT 51.018288 -1.317007 1,275 208 110 -720
2019-02-17 15:21:37 GMT 51.033295 -1.309968 1,550 195 154 -840
2019-02-17 15:20:55 GMT 51.059875 -1.295903 2,125 187 107 -1200
2019-02-17 15:20:45 GMT 51.066315 -1.291591 2,225 209 135 -900
2019-02-17 15:20:35 GMT 51.079937 -1.284041 2,400 198 148 -480
2019-02-17 15:20:25 GMT 51.079937 -1.284041 2,525 175 162 -840
2019-02-17 15:20:15 GMT 51.086975 -1.279974 2,625 224 153 -300
2019-02-17 15:20:04 GMT 51.094109 -1.272049 2,775 223 173 -540
2019-02-17 15:19:53 GMT 51.098255 -1.261532 2,900 264 197 -2040
2019-02-17 15:19:42 GMT 51.097614 -1.246820 3,075 287 130 -1380
2019-02-17 15:19:32 GMT 51.094254 -1.234870 3,225 303 143 -900
2019-02-17 15:19:21 GMT 51.085381 -1.209482 3,425 309 107 -1500
2019-02-17 15:19:10 GMT 51.085381 -1.209482 3,625 297 296 -1380
2019-02-17 15:18:59 GMT 51.080357 -1.198924 3,950 291 180 -780
2019-02-17 15:18:48 GMT 51.075146 -1.188045 4,075 330 184 -660
2019-02-17 15:18:37 GMT 51.065357 -1.181563 4,300 352 144 -840
2019-02-17 15:18:25 GMT 51.054165 -1.181694 4,475 6 204 -1080
2019-02-17 15:18:15 GMT 51.044788 -1.182915 4,725 14 265 -660
2019-02-17 15:18:04 GMT 51.021217 -1.187100 4,875 354 315 -780
2019-02-17 15:17:52 GMT 51.021217 -1.187100 4,975 11 152 -600
2019-02-17 15:17:41 GMT 51.008385 -1.185800 5,200 330 231 -780
2019-02-17 15:17:30 GMT 50.999413 -1.184230 5,375 352 451 -660
2019-02-17 15:17:19 GMT 50.987530 -1.182315 5,500 352 246 -660
2019-02-17 15:17:09 GMT 50.975399 -1.180268 5,675 340 183 -900
2019-02-17 15:16:59 GMT 50.965237 -1.178350 5,800 1 200 -1500
2019-02-17 15:16:49 GMT 50.954533 -1.177389 5,975 346 113 -720
2019-02-17 15:16:39 GMT 50.943611 -1.175556 6,150 1 231 -1020
2019-02-17 15:16:29 GMT 50.931904 -1.175408 6,325 357 219 -420
2019-02-17 15:16:19 GMT 50.920662 -1.174983 6,475 349 281 -600
2019-02-17 15:16:06 GMT 50.904606 -1.172238 6,625 345 274 -480
2019-02-17 15:15:55 GMT 50.891186 -1.169992 6,700 350 245 -840
2019-02-17 15:15:45 GMT 50.867832 -1.166948 6,800 357 309 -480
2019-02-17 15:15:35 GMT 50.867832 -1.166948 6,900 321 218 -360
2019-02-17 15:15:25 GMT 50.857407 -1.159748 6,975 317 198 60
2019-02-17 15:15:14 GMT 50.849350 -1.148582 7,000 312 207 0
2019-02-17 15:15:03 GMT 50.843815 -1.134077 7,000 269 43 -120
2019-02-17 15:14:53 GMT 50.840816 -1.122509 7,000 219 87 -300
2019-02-17 15:14:42 GMT 50.837177 -1.107663 7,025 293 192 -480
2019-02-17 15:14:32 GMT 50.833790 -1.095665 7,100 297 319 -480
2019-02-17 15:14:22 GMT 50.830791 -1.083244 7,175 291 299 -780
2019-02-17 15:14:11 GMT 50.826172 -1.067416 7,325 290 222 -840
2019-02-17 15:14:00 GMT 50.827267 -1.058825 7,450 309 382 -600
2019-02-17 15:13:50 GMT 50.818172 -1.038886 7,525 297 240 -720
2019-02-17 15:13:40 GMT 50.815235 -1.025692 7,675 296 209 -540
2019-02-17 15:13:30 GMT 50.812023 -1.012851 7,800 286 213 -1080
2019-02-17 15:13:20 GMT 50.808857 -0.998567 7,975 293 206 -840
2019-02-17 15:13:10 GMT 50.804611 -0.983954 8,150 286 188 -1080
2019-02-17 15:13:00 GMT 50.801598 -0.970946 8,300 293 191 -1080
2019-02-17 15:12:50 GMT 50.799526 -0.956804 8,475 289 225 -900
2019-02-17 15:12:39 GMT 50.794716 -0.942624 8,725 294 198 -720
2019-02-17 15:12:29 GMT 50.788254 -0.914099 8,850 289 213 -1080
2019-02-17 15:12:19 GMT 50.788254 -0.914099 9,000 276 182 -960
2019-02-17 15:12:09 GMT 50.784138 -0.901089 9,150 283 204 -780
2019-02-17 15:11:58 GMT 50.781830 -0.884529 9,425 288 239 -1200
2019-02-17 15:11:48 GMT 50.776920 -0.867356 9,525 274 202 -780
2019-02-17 15:11:37 GMT 50.769661 -0.834249 9,775 286 219 -180
2019-02-17 15:11:26 GMT 50.769661 -0.834249 9,925 301 178 -180
2019-02-17 15:11:15 GMT 50.764614 -0.815898 10,000 286 201 0
2019-02-17 15:11:04 GMT 50.760830 -0.798993 10,000 287 231 0
2019-02-17 15:10:53 GMT 50.757435 -0.781717 10,000 286 217 0
2019-02-17 15:10:43 GMT 50.749027 -0.749749 10,000 287 226 0
2019-02-17 15:10:33 GMT 50.743690 -0.733458 10,000 304 261 0
2019-02-17 15:10:22 GMT 50.743690 -0.733458 10,000 299 237 0
2019-02-17 15:10:12 GMT 50.738316 -0.718329 10,000 295 233 0
2019-02-17 15:10:02 GMT 50.732956 -0.702372 10,000 289 205 0
2019-02-17 15:09:51 GMT 50.722351 -0.685198 10,000 301 244 0
2019-02-17 15:09:40 GMT 50.722378 -0.670677 10,000 301 275 0
2019-02-17 15:09:30 GMT 50.716393 -0.655110 10,000 297 229 0
2019-02-17 15:09:19 GMT 50.710461 -0.637154 10,000 302 252 0
2019-02-17 15:09:08 GMT 50.697807 -0.602619 10,000 302 245 0
2019-02-17 15:08:57 GMT 50.697807 -0.602619 10,000 298 225 0
2019-02-17 15:08:47 GMT 50.695488 -0.590300 10,000 297 245 0
2019-02-17 15:08:35 GMT 50.686779 -0.570025 10,000 305 269 0
2019-02-17 15:08:23 GMT 50.679691 -0.551491 10,000 296 211 0
2019-02-17 15:08:13 GMT 50.674789 -0.536789 10,000 303 275 0
2019-02-17 15:08:03 GMT 50.669167 -0.520600 10,000 305 245 0
2019-02-17 15:07:53 GMT 50.663002 -0.504714 10,000 296 222 0
2019-02-17 15:07:42 GMT 50.657406 -0.489038 10,000 296 233 0
2019-02-17 15:07:32 GMT 50.651909 -0.473092 10,000 300 245 0
2019-02-17 15:07:21 GMT 50.645638 -0.456084 10,000 300 253 0
2019-02-17 15:07:09 GMT 50.638752 -0.436546 10,000 289 201 0
2019-02-17 15:06:57 GMT 50.631279 -0.417261 10,000 297 201 0
2019-02-17 15:06:46 GMT 50.627506 -0.402044 10,000 305 270 0
2019-02-17 15:06:36 GMT 50.615120 -0.369991 10,000 291 221 0
2019-02-17 15:06:26 GMT 50.615120 -0.369991 10,000 297 248 0
2019-02-17 15:06:16 GMT 50.610466 -0.355075 10,000 304 259 0
2019-02-17 15:06:06 GMT 50.605602 -0.339248 10,000 287 194 0
2019-02-17 15:05:55 GMT 50.599773 -0.322599 10,000 303 279 0
2019-02-17 15:05:41 GMT 50.590443 -0.299519 10,000 295 210 0
2019-02-17 15:05:31 GMT 50.587093 -0.284511 10,000 309 311 0
2019-02-17 15:05:21 GMT 50.577854 -0.267076 10,000 280 197 0
2019-02-17 15:05:11 GMT 50.576374 -0.253295 10,000 301 266 0
2019-02-17 15:05:00 GMT 50.568420 -0.234741 10,000 300 249 0
2019-02-17 15:04:49 GMT 50.559387 -0.213223 10,000 271 180 0
2019-02-17 15:04:38 GMT 50.559185 -0.198746 10,000 313 323 0
2019-02-17 15:04:27 GMT 50.543945 -0.164390 10,000 291 204 0
2019-02-17 15:04:17 GMT 50.543945 -0.164390 10,000 313 324 0
2019-02-17 15:04:05 GMT 50.535927 -0.144312 10,000 299 268 0
2019-02-17 15:03:41 GMT 50.518677 -0.100293 10,000 288 181 -60
2019-02-17 15:03:31 GMT 50.515961 -0.087800 10,000 299 272 -180
2019-02-17 15:03:20 GMT 50.509701 -0.068182 10,025 299 242 -60
2019-02-17 15:03:09 GMT 50.503632 -0.051256 10,025 294 211 -60
2019-02-17 15:02:58 GMT 50.496845 -0.034771 10,075 291 248 -2100
2019-02-17 15:02:47 GMT 50.492119 -0.016344 10,100 285 260 -1560
2019-02-17 15:02:32 GMT 50.487442 0.011075 10,625 277 234 -1920
2019-02-17 15:02:21 GMT 50.485889 0.030524 10,925 257 225 -3000
2019-02-17 15:02:10 GMT 50.488312 0.048164 11,125 246 246 -3000
2019-02-17 15:01:58 GMT 50.504894 0.078359 11,725 194 302 -3660
2019-02-17 15:01:47 GMT 50.521473 0.081352 12,125 184 223 -2460
2019-02-17 15:01:34 GMT 50.535648 0.072902 12,975 157 282 -1380
2019-02-17 15:01:23 GMT 50.535648 0.072902 12,850 141 237 -1560
2019-02-17 15:01:10 GMT 50.548138 0.060257 13,450 117 314 -2760
2019-02-17 15:00:58 GMT 50.554676 0.036210 13,950 115 363 -3360
2019-02-17 15:00:48 GMT 50.561131 0.016443 14,425 115 337 -2520
2019-02-17 15:00:36 GMT 50.569752 -0.010883 15,200 112 283 -3060
2019-02-17 15:00:25 GMT 50.575111 -0.032451 15,950 120 326 -2160
2019-02-17 15:00:14 GMT 50.582191 -0.055028 16,200 120 351 -2580
2019-02-17 15:00:04 GMT 50.590038 -0.077326 16,675 104 268 -2280
2019-02-17 14:59:53 GMT 50.596317 -0.101373 17,250 120 390 -2280
2019-02-17 14:59:42 GMT 50.602238 -0.125135 17,675 109 332 -3660
2019-02-17 14:59:31 GMT 50.609402 -0.148810 18,175 123 355 -1980
2019-02-17 14:59:21 GMT 50.614594 -0.168139 19,000 121 436 0
2019-02-17 14:59:11 GMT 50.623390 -0.193165 19,000 114 324 0
2019-02-17 14:59:00 GMT 50.630230 -0.216319 19,000 117 369 0
2019-02-17 14:58:50 GMT 50.638809 -0.240638 19,000 116 317 0
2019-02-17 14:58:40 GMT 50.646282 -0.263807 19,000 116 357 0
2019-02-17 14:58:30 GMT 50.652527 -0.283188 19,000 111 341 60
2019-02-17 14:58:19 GMT 50.658867 -0.306920 19,000 120 374 120
2019-02-17 14:58:09 GMT 50.666698 -0.331519 18,975 114 331 60
2019-02-17 14:57:58 GMT 50.675594 -0.355521 18,950 113 349 480
2019-02-17 14:57:48 GMT 50.679943 -0.375946 18,925 122 402 1200
2019-02-17 14:57:38 GMT 50.687500 -0.396605 18,825 108 274 1140
2019-02-17 14:57:27 GMT 50.694363 -0.422107 18,575 116 342 780
2019-02-17 14:57:17 GMT 50.700909 -0.443508 18,325 112 300 840
2019-02-17 14:57:05 GMT 50.708942 -0.466333 18,200 115 379 840
2019-02-17 14:56:55 GMT 50.716621 -0.492322 17,600 119 350 1080
2019-02-17 14:56:45 GMT 50.727562 -0.513677 17,725 95 303 1080
2019-02-17 14:56:35 GMT 50.729790 -0.533996 17,650 132 369 1140
2019-02-17 14:56:25 GMT 50.741207 -0.575429 17,450 110 285 600
2019-02-17 14:56:15 GMT 50.741207 -0.575429 17,325 120 373 1080
2019-02-17 14:56:05 GMT 50.748981 -0.597062 17,200 116 300 720
2019-02-17 14:55:55 GMT 50.755856 -0.617705 17,050 78 319 2040
2019-02-17 14:55:44 GMT 50.763206 -0.641633 16,775 113 317 900
2019-02-17 14:55:33 GMT 50.768497 -0.662718 16,625 117 341 1860
2019-02-17 14:55:23 GMT 50.774521 -0.682112 16,400 117 351 720
2019-02-17 14:55:13 GMT 50.782036 -0.704950 16,250 113 276 1140
2019-02-17 14:55:02 GMT 50.787884 -0.725558 16,025 113 292 1560
2019-02-17 14:54:51 GMT 50.795399 -0.745758 15,725 105 250 1740
2019-02-17 14:54:41 GMT 50.798931 -0.764994 15,425 112 247 1500
2019-02-17 14:54:31 GMT 50.810616 -0.804276 15,150 111 268 1980
2019-02-17 14:54:20 GMT 50.810616 -0.804276 14,875 114 292 1800
2019-02-17 14:54:09 GMT 50.816132 -0.825269 14,450 116 282 1560
2019-02-17 14:53:59 GMT 50.821217 -0.843562 14,075 118 341 1260
2019-02-17 14:53:47 GMT 50.828541 -0.866184 13,575 112 248 3420
2019-02-17 14:53:36 GMT 50.836048 -0.885502 13,325 102 265 2100
2019-02-17 14:53:26 GMT 50.840878 -0.903508 12,875 102 233 0
2019-02-17 14:53:16 GMT 50.844677 -0.921950 12,575 107 243 2520
2019-02-17 14:53:06 GMT 50.851135 -0.941324 12,250 118 261 1380
2019-02-17 14:52:55 GMT 50.855171 -0.959231 11,875 112 265 1800
2019-02-17 14:52:44 GMT 50.860126 -0.978368 11,475 102 284 1560
2019-02-17 14:52:33 GMT 50.862705 -1.000885 11,150 91 258 1800
2019-02-17 14:52:22 GMT 50.862995 -1.022326 10,800 95 303 2460
2019-02-17 14:52:12 GMT 50.864449 -1.061024 10,350 95 271 2460
2019-02-17 14:52:02 GMT 50.864449 -1.061024 10,000 92 271 2340
2019-02-17 14:51:52 GMT 50.863655 -1.079252 9,475 96 256 2040
2019-02-17 14:51:42 GMT 50.865097 -1.099945 9,125 96 276 2700
2019-02-17 14:51:32 GMT 50.865944 -1.118871 8,750 93 267 2460
2019-02-17 14:51:22 GMT 50.866196 -1.137207 8,275 89 247 2040
2019-02-17 14:51:11 GMT 50.866585 -1.161632 7,750 60 97 2340
2019-02-17 14:51:01 GMT 50.866611 -1.178557 7,500 90 259 2520
2019-02-17 14:50:50 GMT 50.866898 -1.199583 6,825 79 198 1380
2019-02-17 14:50:38 GMT 50.866863 -1.221918 6,450 89 285 1560
2019-02-17 14:50:27 GMT 50.866634 -1.241714 6,150 94 299 0
2019-02-17 14:50:17 GMT 50.867474 -1.260269 5,950 95 217 1800
2019-02-17 14:50:05 GMT 50.868382 -1.282217 5,550 87 324 2160
2019-02-17 14:49:54 GMT 50.868683 -1.302562 5,250 93 252 2220
2019-02-17 14:49:44 GMT 50.870125 -1.320868 4,750 96 200 4380
2019-02-17 14:49:33 GMT 50.872543 -1.338862 4,425 116 146 0
2019-02-17 14:49:22 GMT 50.881496 -1.374131 3,825 111 230 2160

Making use of Plane Finder data

You are free to use the raw flight data, aircraft information and images provided in this report for your own purposes provided the data is correctly attributed to Plane Finder. We ask that you please credit Plane Finder and link to planefinder.net in close proximity to the content.

Optionally one of the following logos (no smaller then 150x24px) can be used and must link to planefinder.net

Embedding the Plane Finder map

You are welcome to embed the Plane Finder playback map on your website to offer visitors a more interactive experience. We suggest using the following HTML code:

<iframe src="//planefinder.net/data/report/BE3035-G-JECZ-7700-squawk-2019-02-17/map" width="800" height="600" seamless="seamless"></iframe>

Where our data comes from

Plane Finder has a global network of data feeds and antenna radars that receive data broadcast directly from aircraft. The primary technologies used are ADS-B and MLAT. We also show feeds from the FAA and a FLARM glider feed.

Click here to find out more about the Plane Finder network.

How we collect our data